createdAt,value
2022-10-28T00:00:36.500Z,45.30
2022-10-28T00:03:24.176Z,45.60
2022-10-28T00:05:51.945Z,49.60
2022-10-28T00:08:19.529Z,48.40
2022-10-28T00:10:47.245Z,45.00
2022-10-28T00:13:15.263Z,48.60
2022-10-28T00:15:43.002Z,42.20
2022-10-28T00:18:12.258Z,47.90
2022-10-28T00:20:39.954Z,49.00
2022-10-28T00:23:07.751Z,50.10
2022-10-28T00:25:35.542Z,51.30
2022-10-28T00:28:03.180Z,46.40
2022-10-28T00:33:03.979Z,51.10
2022-10-28T00:35:31.691Z,46.10
2022-10-28T00:37:59.661Z,62.60
2022-10-28T00:40:27.649Z,82.90
2022-10-28T00:42:55.750Z,44.20
2022-10-28T00:45:24.793Z,41.90
2022-10-28T00:47:57.461Z,47.90
2022-10-28T00:50:41.212Z,48.30
2022-10-28T00:53:35.605Z,46.50
2022-10-28T00:56:03.824Z,46.60
2022-10-28T00:58:31.842Z,49.90
2022-10-28T01:01:00.016Z,41.50
2022-10-28T01:03:27.678Z,34.60
2022-10-28T01:05:55.559Z,39.50
2022-10-28T01:08:23.331Z,31.50
2022-10-28T01:10:54.251Z,38.20
2022-10-28T01:13:25.077Z,65.60
2022-10-28T01:15:57.829Z,40.00
2022-10-28T01:18:34.122Z,32.30
2022-10-28T01:21:11.203Z,35.30
2022-10-28T01:23:57.604Z,31.80
2022-10-28T01:26:44.624Z,40.10
2022-10-28T01:29:15.666Z,31.40
2022-10-28T01:31:53.377Z,33.70
2022-10-28T01:34:42.726Z,37.00
2022-10-28T01:37:16.346Z,36.90
2022-10-28T01:39:44.207Z,109.50
2022-10-28T01:42:11.874Z,76.70
2022-10-28T01:44:52.315Z,88.00
2022-10-28T01:47:22.025Z,44.40
2022-10-28T01:49:53.577Z,34.70
2022-10-28T01:52:25.029Z,54.10
2022-10-28T01:54:57.613Z,31.60
2022-10-28T01:57:26.158Z,34.60
2022-10-28T01:59:54.983Z,33.40
2022-10-28T02:02:22.724Z,35.40
2022-10-28T02:04:50.606Z,32.90
2022-10-28T02:07:18.541Z,36.80
2022-10-28T02:09:52.386Z,52.70
2022-10-28T02:12:22.114Z,31.90
2022-10-28T02:15:01.900Z,54.60
2022-10-28T02:17:38.914Z,93.60
2022-10-28T02:20:06.780Z,76.90
2022-10-28T02:22:49.039Z,37.40
2022-10-28T02:25:21.665Z,30.00
2022-10-28T02:27:56.693Z,42.70
2022-10-28T02:30:28.965Z,33.10
2022-10-28T02:32:58.979Z,34.50
2022-10-28T02:35:34.841Z,110.80
2022-10-28T02:38:03.825Z,74.00
2022-10-28T02:40:32.885Z,79.00
2022-10-28T02:43:06.537Z,34.40
2022-10-28T02:45:40.121Z,36.60
2022-10-28T02:48:14.031Z,68.00
2022-10-28T02:50:44.123Z,32.60
2022-10-28T02:53:15.958Z,35.60
2022-10-28T02:55:44.796Z,36.80
2022-10-28T02:58:12.662Z,34.50
2022-10-28T03:00:44.164Z,41.50
2022-10-28T03:03:12.181Z,78.60
2022-10-28T03:05:39.986Z,52.60
2022-10-28T03:08:07.721Z,84.80
2022-10-28T03:10:35.386Z,63.10
2022-10-28T03:13:03.496Z,34.70
2022-10-28T03:15:31.267Z,36.30
2022-10-28T03:17:58.867Z,40.00
2022-10-28T03:20:27.583Z,35.70
2022-10-28T03:22:55.728Z,37.60
2022-10-28T03:25:23.958Z,35.20
2022-10-28T03:27:51.511Z,42.80
2022-10-28T03:30:19.150Z,64.60
2022-10-28T03:32:46.881Z,118.40
2022-10-28T03:35:14.747Z,123.60
2022-10-28T03:37:43.786Z,100.10
2022-10-28T03:40:12.201Z,97.80
2022-10-28T03:42:43.065Z,73.30
2022-10-28T03:45:11.177Z,84.30
2022-10-28T03:47:40.002Z,153.90
2022-10-28T03:50:08.087Z,181.90
2022-10-28T03:52:35.851Z,88.30
2022-10-28T03:55:03.799Z,64.60
2022-10-28T03:57:32.211Z,100.70
2022-10-28T04:00:00.062Z,48.60
2022-10-28T04:02:28.255Z,57.20
2022-10-28T04:04:56.307Z,41.50
2022-10-28T04:07:24.441Z,47.30
2022-10-28T04:09:52.654Z,50.00
2022-10-28T04:12:20.340Z,48.00
2022-10-28T04:14:48.078Z,48.10
2022-10-28T04:17:15.638Z,51.30
2022-10-28T04:19:43.407Z,47.10
2022-10-28T04:22:11.324Z,46.40
2022-10-28T04:24:39.039Z,39.90
2022-10-28T04:27:06.647Z,56.90
2022-10-28T04:29:34.455Z,58.00
2022-10-28T04:32:02.327Z,171.40
2022-10-28T04:34:29.985Z,79.30
2022-10-28T04:36:57.849Z,121.90
2022-10-28T04:39:25.817Z,142.50
2022-10-28T04:41:53.992Z,249.20
2022-10-28T04:44:21.755Z,232.00
2022-10-28T04:46:49.933Z,297.20
2022-10-28T04:49:17.617Z,208.10
2022-10-28T04:51:48.312Z,128.20
2022-10-28T04:54:16.360Z,132.50
2022-10-28T04:56:44.210Z,102.20
2022-10-28T04:59:12.025Z,127.70
2022-10-28T05:01:39.843Z,117.00
2022-10-28T05:04:07.778Z,93.10
2022-10-28T05:06:35.447Z,55.00
2022-10-28T05:09:03.108Z,101.20
2022-10-28T05:11:30.842Z,38.40
2022-10-28T05:13:58.912Z,31.90
2022-10-28T05:16:26.885Z,40.00
2022-10-28T05:18:54.763Z,209.90
2022-10-28T05:21:22.516Z,112.50
2022-10-28T05:23:50.286Z,62.90
2022-10-28T05:26:17.917Z,78.50
2022-10-28T05:28:49.383Z,67.00
2022-10-28T05:31:17.662Z,66.60
2022-10-28T05:33:45.412Z,61.00
2022-10-28T05:36:13.295Z,68.00
2022-10-28T05:38:45.627Z,77.70
2022-10-28T05:41:13.531Z,71.50
2022-10-28T05:43:41.334Z,81.60
2022-10-28T05:46:09.614Z,93.40
2022-10-28T05:48:37.548Z,255.20
2022-10-28T05:51:05.698Z,181.90
2022-10-28T05:53:33.676Z,182.60
2022-10-28T05:56:01.952Z,179.00
2022-10-28T05:58:29.625Z,167.80
2022-10-28T06:00:57.377Z,114.10
2022-10-28T06:03:30.051Z,49.10
2022-10-28T06:05:59.534Z,45.20
2022-10-28T06:08:27.871Z,52.00
2022-10-28T06:10:54.414Z,68.20
2022-10-28T06:13:24.602Z,39.80
2022-10-28T06:15:55.639Z,42.90
2022-10-28T06:18:23.817Z,63.90
2022-10-28T06:20:52.703Z,46.90
2022-10-28T06:23:20.776Z,40.90
2022-10-28T06:25:48.800Z,37.00
2022-10-28T06:28:16.615Z,38.60
2022-10-28T06:30:44.980Z,39.40
2022-10-28T06:33:12.774Z,42.20
2022-10-28T06:35:40.471Z,44.00
2022-10-28T06:38:09.585Z,47.70
2022-10-28T06:40:37.802Z,43.90
2022-10-28T06:43:06.692Z,40.90
2022-10-28T06:45:34.619Z,51.90
2022-10-28T06:48:05.561Z,60.30
2022-10-28T06:50:34.372Z,63.10
2022-10-28T06:53:02.968Z,59.60
2022-10-28T06:55:31.342Z,60.30
2022-10-28T06:57:59.581Z,54.70
2022-10-28T07:03:06.369Z,40.90
2022-10-28T07:05:34.377Z,39.70
2022-10-28T07:08:02.349Z,37.10
2022-10-28T07:10:30.112Z,33.70
2022-10-28T07:12:58.072Z,35.30
2022-10-28T07:15:26.053Z,35.10
2022-10-28T07:17:58.119Z,36.50
2022-10-28T07:20:27.197Z,37.40
2022-10-28T07:22:59.181Z,37.00
2022-10-28T07:25:27.567Z,46.70
2022-10-28T07:27:57.087Z,52.20
2022-10-28T07:30:25.768Z,84.80
2022-10-28T07:32:53.977Z,68.50
2022-10-28T07:35:21.879Z,59.80
2022-10-28T07:37:49.763Z,59.80
2022-10-28T07:40:18.149Z,42.90
2022-10-28T07:42:45.805Z,47.10
2022-10-28T07:45:13.669Z,39.80
2022-10-28T07:47:43.377Z,38.30
2022-10-28T07:50:11.869Z,41.90
2022-10-28T07:52:39.860Z,39.00
2022-10-28T07:55:08.559Z,36.00
2022-10-28T07:57:37.097Z,40.10
2022-10-28T08:00:05.776Z,36.10
2022-10-28T08:02:33.456Z,40.20
2022-10-28T08:05:02.423Z,37.80
2022-10-28T08:07:34.847Z,36.50
2022-10-28T08:10:06.023Z,46.10
2022-10-28T08:12:34.443Z,41.00
2022-10-28T08:15:02.952Z,37.10
2022-10-28T08:17:30.957Z,41.10
2022-10-28T08:19:58.764Z,36.80
2022-10-28T08:22:26.364Z,42.30
2022-10-28T08:24:54.332Z,35.70
2022-10-28T08:27:22.048Z,34.40
2022-10-28T08:29:50.072Z,31.90
2022-10-28T08:32:17.729Z,36.50
2022-10-28T08:34:45.487Z,34.10
2022-10-28T08:37:13.914Z,31.20
2022-10-28T08:39:42.145Z,34.70
2022-10-28T08:42:16.156Z,33.30
2022-10-28T08:45:03.027Z,28.70
2022-10-28T08:50:04.090Z,28.30
2022-10-28T08:52:39.363Z,31.10
2022-10-28T08:55:07.330Z,30.70
2022-10-28T08:57:38.863Z,30.60
2022-10-28T09:00:08.123Z,28.70
2022-10-28T09:02:49.196Z,28.60
2022-10-28T09:05:16.941Z,28.20
2022-10-28T09:07:44.673Z,25.70
2022-10-28T09:10:14.770Z,28.70
2022-10-28T09:12:55.214Z,25.70
2022-10-28T09:15:42.504Z,25.50
2022-10-28T09:18:17.262Z,26.20
2022-10-28T09:20:51.969Z,26.30
2022-10-28T09:23:23.990Z,24.00
2022-10-28T09:26:07.227Z,25.10
2022-10-28T09:28:38.064Z,22.50
2022-10-28T09:31:24.566Z,22.30
2022-10-28T09:34:02.056Z,25.50
2022-10-28T09:36:52.753Z,23.00
2022-10-28T09:39:26.804Z,25.30
2022-10-28T09:41:58.475Z,20.10
2022-10-28T09:44:33.567Z,19.60
2022-10-28T09:47:03.063Z,16.50
2022-10-28T09:49:34.925Z,19.40
2022-10-28T09:52:13.886Z,19.20
2022-10-28T09:54:46.435Z,16.80
2022-10-28T09:57:17.217Z,17.90
2022-10-28T09:59:45.762Z,16.70
2022-10-28T10:02:33.139Z,15.50
2022-10-28T10:05:02.153Z,16.90
2022-10-28T10:07:36.270Z,17.70
2022-10-28T10:10:06.372Z,17.00
2022-10-28T10:12:34.461Z,13.40
2022-10-28T10:15:05.174Z,13.20
2022-10-28T10:17:44.325Z,11.10
2022-10-28T10:20:13.750Z,11.30
2022-10-28T10:22:43.015Z,14.10
2022-10-28T10:25:31.252Z,9.90
2022-10-28T10:28:19.357Z,10.50
2022-10-28T10:30:51.815Z,9.70
2022-10-28T10:33:24.697Z,11.70
2022-10-28T10:36:00.000Z,11.60
2022-10-28T10:38:29.508Z,10.10
2022-10-28T10:40:58.111Z,9.50
2022-10-28T10:43:33.029Z,11.50
2022-10-28T10:46:03.248Z,9.60
2022-10-28T10:48:36.556Z,9.40
2022-10-28T10:51:07.173Z,9.00
2022-10-28T10:53:35.738Z,8.70
2022-10-28T10:56:05.260Z,10.20
2022-10-28T10:58:35.582Z,9.20
2022-10-28T11:01:05.283Z,7.90
2022-10-28T11:03:42.823Z,8.70
2022-10-28T11:06:23.603Z,8.70
2022-10-28T11:08:57.584Z,8.50
2022-10-28T11:11:36.338Z,8.60
2022-10-28T11:14:07.168Z,11.20
2022-10-28T11:16:46.473Z,9.00
2022-10-28T11:19:20.587Z,8.10
2022-10-28T11:21:56.081Z,8.10
2022-10-28T11:24:27.133Z,8.10
2022-10-28T11:27:00.605Z,9.90
2022-10-28T11:29:28.825Z,8.50
2022-10-28T11:31:56.695Z,10.00
2022-10-28T11:34:42.731Z,8.30
2022-10-28T11:37:22.623Z,9.00
2022-10-28T11:40:05.776Z,7.90
2022-10-28T11:42:36.113Z,8.70
2022-10-28T11:45:26.886Z,8.80
2022-10-28T11:48:02.336Z,8.90
2022-10-28T11:50:30.089Z,8.90
2022-10-28T11:53:06.986Z,8.10
2022-10-28T11:55:53.571Z,7.20
2022-10-28T11:58:24.103Z,7.90
2022-10-28T12:00:54.833Z,8.00
2022-10-28T12:03:50.864Z,8.90
2022-10-28T12:06:21.593Z,9.70
2022-10-28T12:08:49.357Z,6.40
2022-10-28T12:11:37.505Z,10.20
2022-10-28T12:14:11.338Z,9.40
2022-10-28T12:16:43.004Z,9.30
2022-10-28T12:19:23.382Z,7.20
2022-10-28T12:21:51.301Z,8.00
2022-10-28T12:24:21.615Z,8.60
2022-10-28T12:26:52.138Z,6.80
2022-10-28T12:29:28.191Z,10.30
2022-10-28T12:31:59.235Z,8.70
2022-10-28T12:34:34.238Z,7.10
2022-10-28T12:37:23.579Z,8.50
2022-10-28T12:39:57.231Z,8.10
2022-10-28T12:42:30.470Z,8.90
2022-10-28T12:44:59.313Z,9.20
2022-10-28T12:47:58.150Z,7.30
2022-10-28T12:50:36.627Z,7.60
2022-10-28T12:53:05.415Z,6.10
2022-10-28T12:55:51.887Z,9.40
2022-10-28T12:58:35.869Z,9.40
2022-10-28T13:01:07.722Z,8.70
2022-10-28T13:03:38.228Z,7.30
2022-10-28T13:06:07.240Z,8.90
2022-10-28T13:08:35.007Z,6.40
2022-10-28T13:11:21.165Z,7.60
2022-10-28T13:14:21.570Z,8.80
2022-10-28T13:17:08.341Z,8.00
2022-10-28T13:20:01.636Z,8.70
2022-10-28T13:22:38.556Z,8.00
2022-10-28T13:25:26.005Z,6.10
2022-10-28T13:27:57.739Z,7.60
2022-10-28T13:30:26.887Z,7.70
2022-10-28T13:33:20.924Z,6.80
2022-10-28T13:35:48.951Z,10.40
2022-10-28T13:38:19.840Z,9.80
2022-10-28T13:40:47.528Z,5.40
2022-10-28T13:43:20.210Z,8.20
2022-10-28T13:45:49.686Z,6.30
2022-10-28T13:48:30.215Z,6.60
2022-10-28T13:51:10.517Z,6.20
2022-10-28T13:53:48.015Z,9.70
2022-10-28T13:56:30.717Z,7.80
2022-10-28T13:59:04.321Z,8.80
2022-10-28T14:01:38.276Z,7.40
2022-10-28T14:04:06.838Z,7.40
2022-10-28T14:06:36.804Z,9.20
2022-10-28T14:09:05.572Z,8.00
2022-10-28T14:11:34.013Z,9.10
2022-10-28T14:14:03.186Z,6.90
2022-10-28T14:16:43.291Z,8.10
2022-10-28T14:19:11.317Z,7.60
2022-10-28T14:21:40.864Z,7.50
2022-10-28T14:24:11.949Z,8.60
2022-10-28T14:26:58.447Z,10.20
2022-10-28T14:29:30.285Z,10.20
2022-10-28T14:31:58.496Z,6.10
2022-10-28T14:34:32.648Z,11.90
2022-10-28T14:37:11.420Z,8.30
2022-10-28T14:39:59.669Z,7.30
2022-10-28T14:42:27.987Z,7.60
2022-10-28T14:45:12.802Z,10.80
2022-10-28T14:47:53.536Z,7.60
2022-10-28T14:50:23.711Z,7.10
2022-10-28T14:52:53.981Z,7.50
2022-10-28T14:55:30.385Z,12.20
2022-10-28T14:58:21.457Z,7.50
2022-10-28T15:00:58.615Z,7.60
2022-10-28T15:03:27.207Z,7.80
2022-10-28T15:05:55.021Z,21.90
2022-10-28T15:08:24.511Z,40.50
2022-10-28T15:10:52.286Z,40.40
2022-10-28T15:13:27.937Z,28.50
2022-10-28T15:15:59.405Z,23.00
2022-10-28T15:18:30.064Z,13.70
2022-10-28T15:21:08.105Z,10.20
2022-10-28T15:23:36.519Z,8.50
2022-10-28T15:26:10.306Z,8.60
2022-10-28T15:28:38.992Z,11.10
2022-10-28T15:31:08.191Z,12.70
2022-10-28T15:33:36.464Z,9.90
2022-10-28T15:36:19.519Z,10.20
2022-10-28T15:39:10.808Z,7.20
2022-10-28T15:41:40.823Z,9.20
2022-10-28T15:44:25.280Z,10.40
2022-10-28T15:46:58.486Z,9.40
2022-10-28T15:49:36.071Z,9.00
2022-10-28T15:52:20.623Z,9.40
2022-10-28T15:54:55.895Z,7.60
2022-10-28T15:57:26.234Z,12.50
2022-10-28T16:00:18.960Z,21.30
2022-10-28T16:02:56.411Z,25.40
2022-10-28T16:05:34.223Z,18.50
2022-10-28T16:08:04.030Z,32.50
2022-10-28T16:10:35.072Z,24.80
2022-10-28T16:13:09.076Z,19.10
2022-10-28T16:15:45.453Z,26.00
2022-10-28T16:18:13.218Z,28.10
2022-10-28T16:20:41.035Z,19.50
2022-10-28T16:23:15.893Z,15.00
2022-10-28T16:25:44.516Z,11.70
2022-10-28T16:28:18.709Z,11.60
2022-10-28T16:30:46.566Z,11.90
2022-10-28T16:33:14.535Z,9.20
2022-10-28T16:35:42.489Z,11.50
2022-10-28T16:38:16.423Z,14.60
2022-10-28T16:40:52.095Z,10.70
2022-10-28T16:43:22.489Z,13.10
2022-10-28T16:45:51.380Z,14.70
2022-10-28T16:48:20.267Z,11.50
2022-10-28T16:50:49.563Z,12.40
2022-10-28T16:53:18.148Z,9.50
2022-10-28T16:55:46.320Z,10.60
2022-10-28T16:58:14.252Z,12.50
2022-10-28T17:00:43.287Z,9.60
2022-10-28T17:03:12.989Z,14.00
2022-10-28T17:05:41.993Z,17.10
2022-10-28T17:08:11.238Z,27.00
2022-10-28T17:10:42.946Z,20.70
2022-10-28T17:13:15.109Z,23.10
2022-10-28T17:15:44.099Z,36.00
2022-10-28T17:18:17.147Z,92.00
2022-10-28T17:20:46.700Z,53.10
2022-10-28T17:23:14.459Z,39.90
2022-10-28T17:25:42.728Z,23.70
2022-10-28T17:28:11.110Z,18.10
2022-10-28T17:30:38.823Z,17.30
2022-10-28T17:33:08.175Z,12.30
2022-10-28T17:35:36.158Z,12.70
2022-10-28T17:38:04.321Z,70.20
2022-10-28T17:40:32.384Z,86.50
2022-10-28T17:43:00.991Z,32.20
2022-10-28T17:45:29.071Z,20.30
2022-10-28T17:47:56.924Z,22.80
2022-10-28T17:50:24.670Z,22.40
2022-10-28T17:52:53.264Z,27.50
2022-10-28T17:55:21.628Z,64.00
2022-10-28T17:57:49.538Z,50.00
2022-10-28T18:00:17.292Z,37.20
2022-10-28T18:02:45.138Z,33.60
2022-10-28T18:05:14.322Z,35.60
2022-10-28T18:07:45.415Z,31.50
2022-10-28T18:10:15.015Z,24.90
2022-10-28T18:12:43.448Z,21.10
2022-10-28T18:15:12.144Z,17.10
2022-10-28T18:17:41.527Z,26.70
2022-10-28T18:20:10.847Z,24.20
2022-10-28T18:22:39.923Z,24.70
2022-10-28T18:25:09.131Z,14.40
2022-10-28T18:27:38.557Z,12.70
2022-10-28T18:30:06.921Z,12.50
2022-10-28T18:32:35.290Z,12.80
2022-10-28T18:35:04.539Z,17.60
2022-10-28T18:37:33.168Z,31.70
2022-10-28T18:40:04.174Z,33.40
2022-10-28T18:42:34.666Z,35.60
2022-10-28T18:45:03.529Z,18.60
2022-10-28T18:47:34.157Z,15.00
2022-10-28T18:50:01.945Z,13.90
2022-10-28T18:52:29.894Z,13.90
2022-10-28T18:54:58.099Z,12.30
2022-10-28T18:57:25.954Z,13.20
2022-10-28T19:02:47.399Z,13.80
2022-10-28T19:05:16.051Z,12.30
2022-10-28T19:07:44.945Z,16.90
2022-10-28T19:10:12.908Z,17.50
2022-10-28T19:12:45.004Z,12.50
2022-10-28T19:15:16.341Z,13.30
2022-10-28T19:17:46.269Z,13.10
2022-10-28T19:20:14.612Z,12.70
2022-10-28T19:22:45.285Z,10.20
2022-10-28T19:25:18.414Z,16.80
2022-10-28T19:27:46.420Z,13.60
2022-10-28T19:30:14.992Z,18.20
2022-10-28T19:32:42.747Z,20.20
2022-10-28T19:35:11.115Z,19.90
2022-10-28T19:37:39.403Z,26.00
2022-10-28T19:40:07.686Z,41.40
2022-10-28T19:42:36.157Z,52.00
2022-10-28T19:45:05.452Z,39.80
2022-10-28T19:47:33.521Z,49.30
2022-10-28T19:50:02.269Z,42.40
2022-10-28T19:52:31.519Z,52.30
2022-10-28T19:54:59.790Z,38.30
2022-10-28T19:57:28.072Z,26.90
2022-10-28T19:59:56.651Z,29.00
2022-10-28T20:02:25.034Z,25.70
2022-10-28T20:04:56.376Z,28.40
2022-10-28T20:07:24.243Z,22.20
2022-10-28T20:09:53.072Z,14.50
2022-10-28T20:12:22.341Z,26.40
2022-10-28T20:14:51.116Z,16.20
2022-10-28T20:17:21.047Z,12.60
2022-10-28T20:19:49.418Z,14.50
2022-10-28T20:22:18.302Z,13.30
2022-10-28T20:24:47.396Z,13.70
2022-10-28T20:27:17.203Z,11.20
2022-10-28T20:29:46.923Z,14.80
2022-10-28T20:32:17.791Z,11.70
2022-10-28T20:34:46.549Z,14.20
2022-10-28T20:37:14.666Z,11.40
2022-10-28T20:39:45.918Z,13.10
2022-10-28T20:42:15.053Z,12.20
2022-10-28T20:44:43.854Z,13.10
2022-10-28T20:47:12.455Z,15.10
2022-10-28T20:49:42.843Z,12.70
2022-10-28T20:52:12.908Z,14.70
2022-10-28T20:54:40.932Z,12.40
2022-10-28T20:57:08.869Z,14.50
2022-10-28T20:59:38.625Z,10.60
2022-10-28T21:02:07.807Z,12.30
2022-10-28T21:04:38.353Z,15.50
2022-10-28T21:07:09.012Z,12.10
2022-10-28T21:09:37.559Z,13.10
2022-10-28T21:12:05.735Z,14.60
2022-10-28T21:14:34.108Z,13.90
2022-10-28T21:17:02.150Z,13.30
2022-10-28T21:19:30.144Z,17.10
2022-10-28T21:21:58.545Z,16.90
2022-10-28T21:24:26.497Z,20.80
2022-10-28T21:26:54.474Z,20.40
2022-10-28T21:29:22.325Z,20.40
2022-10-28T21:31:50.494Z,17.80
2022-10-28T21:34:18.482Z,13.90
2022-10-28T21:36:46.217Z,13.90
2022-10-28T21:39:14.197Z,12.60
2022-10-28T21:41:42.284Z,14.90
2022-10-28T21:44:10.237Z,10.20
2022-10-28T21:46:38.305Z,12.60
2022-10-28T21:49:06.283Z,11.60
2022-10-28T21:51:35.788Z,10.90
2022-10-28T21:54:04.677Z,12.90
2022-10-28T21:56:32.324Z,14.80
2022-10-28T21:59:00.912Z,12.90
2022-10-28T22:01:29.032Z,9.90
2022-10-28T22:03:56.930Z,9.90
2022-10-28T22:06:25.027Z,16.70
2022-10-28T22:08:53.811Z,9.70
2022-10-28T22:11:23.008Z,13.70
2022-10-28T22:13:55.686Z,13.00
2022-10-28T22:16:23.345Z,12.30
2022-10-28T22:18:51.964Z,13.70
2022-10-28T22:21:21.110Z,12.40
2022-10-28T22:23:49.541Z,11.40
2022-10-28T22:26:19.114Z,12.60
2022-10-28T22:28:47.489Z,12.70
2022-10-28T22:31:16.282Z,12.40
2022-10-28T22:33:44.108Z,12.40
2022-10-28T22:36:13.239Z,11.30
2022-10-28T22:38:41.302Z,12.40
2022-10-28T22:41:13.371Z,12.20
2022-10-28T22:43:42.060Z,11.10
2022-10-28T22:46:11.056Z,10.40
2022-10-28T22:48:39.431Z,10.70
2022-10-28T22:51:07.411Z,11.50
2022-10-28T22:53:35.032Z,10.10
2022-10-28T22:56:02.923Z,11.60
2022-10-28T22:58:31.281Z,13.20
2022-10-28T23:01:06.131Z,11.80
2022-10-28T23:03:37.785Z,13.30
2022-10-28T23:06:05.960Z,12.10
2022-10-28T23:08:33.646Z,11.70
2022-10-28T23:11:01.512Z,11.60
2022-10-28T23:13:29.614Z,13.70
2022-10-28T23:16:02.339Z,11.20
2022-10-28T23:18:29.947Z,15.20
2022-10-28T23:20:57.884Z,12.00
2022-10-28T23:23:25.526Z,10.90
2022-10-28T23:25:54.222Z,10.20
2022-10-28T23:28:22.160Z,11.80
2022-10-28T23:30:49.846Z,11.40
2022-10-28T23:33:17.503Z,15.40
2022-10-28T23:35:45.230Z,10.00
2022-10-28T23:38:16.509Z,13.40
2022-10-28T23:40:44.383Z,13.20
2022-10-28T23:43:12.374Z,9.30
2022-10-28T23:45:40.342Z,11.80
2022-10-28T23:48:08.050Z,12.50
2022-10-28T23:50:36.766Z,12.90
2022-10-28T23:53:04.533Z,12.50
2022-10-28T23:55:32.496Z,9.40
2022-10-28T23:58:00.468Z,10.30
